sensor_id;sensor_type;location;lat;lon;timestamp;P1;durP1;ratioP1;P2;durP2;ratioP2
69213;SDS011;56325;47.030;18.518;2022-12-13T00:00:52;3.33;;;3.13;;
69213;SDS011;56325;47.030;18.518;2022-12-13T00:03:26;3.47;;;3.27;;
69213;SDS011;56325;47.030;18.518;2022-12-13T00:06:03;3.57;;;3.27;;
69213;SDS011;56325;47.030;18.518;2022-12-13T00:08:38;4.53;;;4.13;;
69213;SDS011;56325;47.030;18.518;2022-12-13T00:11:13;4.93;;;4.53;;
69213;SDS011;56325;47.030;18.518;2022-12-13T00:13:49;4.73;;;3.70;;
69213;SDS011;56325;47.030;18.518;2022-12-13T00:16:24;3.00;;;2.80;;
69213;SDS011;56325;47.030;18.518;2022-12-13T00:18:59;2.83;;;2.63;;
69213;SDS011;56325;47.030;18.518;2022-12-13T00:21:34;3.10;;;2.90;;
69213;SDS011;56325;47.030;18.518;2022-12-13T00:24:08;3.43;;;3.13;;
69213;SDS011;56325;47.030;18.518;2022-12-13T00:26:43;3.17;;;2.90;;
69213;SDS011;56325;47.030;18.518;2022-12-13T00:29:18;3.30;;;2.83;;
69213;SDS011;56325;47.030;18.518;2022-12-13T00:31:53;2.97;;;2.77;;
69213;SDS011;56325;47.030;18.518;2022-12-13T00:34:32;3.27;;;2.97;;
69213;SDS011;56325;47.030;18.518;2022-12-13T00:37:06;2.93;;;2.73;;
69213;SDS011;56325;47.030;18.518;2022-12-13T00:39:41;2.70;;;2.50;;
69213;SDS011;56325;47.030;18.518;2022-12-13T00:42:15;2.23;;;2.13;;
69213;SDS011;56325;47.030;18.518;2022-12-13T00:44:51;4.30;;;2.90;;
69213;SDS011;56325;47.030;18.518;2022-12-13T00:47:26;2.80;;;2.50;;
69213;SDS011;56325;47.030;18.518;2022-12-13T00:50:01;4.97;;;3.17;;
69213;SDS011;56325;47.030;18.518;2022-12-13T00:52:35;4.10;;;3.00;;
69213;SDS011;56325;47.030;18.518;2022-12-13T00:55:10;3.00;;;2.83;;
69213;SDS011;56325;47.030;18.518;2022-12-13T00:57:46;4.10;;;2.37;;
69213;SDS011;56325;47.030;18.518;2022-12-13T01:00:23;2.60;;;2.50;;
69213;SDS011;56325;47.030;18.518;2022-12-13T01:02:58;3.83;;;3.37;;
69213;SDS011;56325;47.030;18.518;2022-12-13T01:05:51;3.20;;;3.00;;
69213;SDS011;56325;47.030;18.518;2022-12-13T01:08:46;5.90;;;4.93;;
69213;SDS011;56325;47.030;18.518;2022-12-13T01:11:21;14.93;;;8.27;;
69213;SDS011;56325;47.030;18.518;2022-12-13T01:13:56;14.70;;;8.77;;
69213;SDS011;56325;47.030;18.518;2022-12-13T01:16:32;14.77;;;7.90;;
69213;SDS011;56325;47.030;18.518;2022-12-13T01:19:06;17.87;;;9.77;;
69213;SDS011;56325;47.030;18.518;2022-12-13T01:21:41;31.33;;;12.73;;
69213;SDS011;56325;47.030;18.518;2022-12-13T01:24:15;42.97;;;19.13;;
69213;SDS011;56325;47.030;18.518;2022-12-13T01:26:52;23.53;;;13.07;;
69213;SDS011;56325;47.030;18.518;2022-12-13T01:29:28;4.83;;;3.00;;
69213;SDS011;56325;47.030;18.518;2022-12-13T01:32:05;21.90;;;6.80;;
69213;SDS011;56325;47.030;18.518;2022-12-13T01:34:39;15.83;;;8.67;;
69213;SDS011;56325;47.030;18.518;2022-12-13T01:37:13;23.33;;;10.80;;
69213;SDS011;56325;47.030;18.518;2022-12-13T01:39:49;14.17;;;7.47;;
69213;SDS011;56325;47.030;18.518;2022-12-13T01:42:30;4.70;;;4.33;;
69213;SDS011;56325;47.030;18.518;2022-12-13T01:45:04;4.57;;;3.73;;
69213;SDS011;56325;47.030;18.518;2022-12-13T01:47:55;3.53;;;3.30;;
69213;SDS011;56325;47.030;18.518;2022-12-13T01:50:34;2.50;;;2.40;;
69213;SDS011;56325;47.030;18.518;2022-12-13T01:53:16;3.40;;;3.03;;
69213;SDS011;56325;47.030;18.518;2022-12-13T01:55:53;2.80;;;2.67;;
69213;SDS011;56325;47.030;18.518;2022-12-13T01:58:34;3.27;;;3.17;;
69213;SDS011;56325;47.030;18.518;2022-12-13T02:01:09;7.47;;;2.90;;
69213;SDS011;56325;47.030;18.518;2022-12-13T02:03:45;2.97;;;2.80;;
69213;SDS011;56325;47.030;18.518;2022-12-13T02:06:21;5.70;;;3.03;;
69213;SDS011;56325;47.030;18.518;2022-12-13T02:09:02;3.20;;;3.00;;
69213;SDS011;56325;47.030;18.518;2022-12-13T02:11:40;3.97;;;3.67;;
69213;SDS011;56325;47.030;18.518;2022-12-13T02:14:16;3.57;;;3.20;;
69213;SDS011;56325;47.030;18.518;2022-12-13T02:16:52;3.37;;;3.17;;
69213;SDS011;56325;47.030;18.518;2022-12-13T02:19:42;3.17;;;2.97;;
69213;SDS011;56325;47.030;18.518;2022-12-13T02:22:59;4.03;;;3.67;;
69213;SDS011;56325;47.030;18.518;2022-12-13T02:25:51;4.43;;;4.10;;
69213;SDS011;56325;47.030;18.518;2022-12-13T02:28:45;2.47;;;2.37;;
69213;SDS011;56325;47.030;18.518;2022-12-13T02:31:38;2.93;;;2.60;;
69213;SDS011;56325;47.030;18.518;2022-12-13T02:34:22;2.70;;;2.50;;
69213;SDS011;56325;47.030;18.518;2022-12-13T02:37:06;2.97;;;2.67;;
69213;SDS011;56325;47.030;18.518;2022-12-13T02:39:51;5.73;;;3.60;;
69213;SDS011;56325;47.030;18.518;2022-12-13T02:42:30;3.63;;;3.33;;
69213;SDS011;56325;47.030;18.518;2022-12-13T02:45:11;2.87;;;2.70;;
69213;SDS011;56325;47.030;18.518;2022-12-13T02:47:54;4.53;;;4.07;;
69213;SDS011;56325;47.030;18.518;2022-12-13T02:50:31;6.57;;;6.00;;
69213;SDS011;56325;47.030;18.518;2022-12-13T02:53:07;6.40;;;5.73;;
69213;SDS011;56325;47.030;18.518;2022-12-13T02:55:43;9.53;;;3.10;;
69213;SDS011;56325;47.030;18.518;2022-12-13T02:58:19;5.20;;;2.60;;
69213;SDS011;56325;47.030;18.518;2022-12-13T03:01:03;4.20;;;3.63;;
69213;SDS011;56325;47.030;18.518;2022-12-13T03:04:03;28.67;;;14.38;;
69213;SDS011;56325;47.030;18.518;2022-12-13T03:06:48;57.33;;;22.77;;
69213;SDS011;56325;47.030;18.518;2022-12-13T03:09:36;5.90;;;4.93;;
69213;SDS011;56325;47.030;18.518;2022-12-13T03:12:23;4.23;;;3.67;;
69213;SDS011;56325;47.030;18.518;2022-12-13T03:15:25;3.80;;;3.50;;
69213;SDS011;56325;47.030;18.518;2022-12-13T03:18:03;6.23;;;4.17;;
69213;SDS011;56325;47.030;18.518;2022-12-13T03:20:50;4.50;;;4.20;;
69213;SDS011;56325;47.030;18.518;2022-12-13T03:23:26;6.10;;;4.27;;
69213;SDS011;56325;47.030;18.518;2022-12-13T03:26:02;17.60;;;10.17;;
69213;SDS011;56325;47.030;18.518;2022-12-13T03:28:40;4.13;;;3.83;;
69213;SDS011;56325;47.030;18.518;2022-12-13T03:31:14;2.63;;;2.43;;
69213;SDS011;56325;47.030;18.518;2022-12-13T03:33:49;2.77;;;2.57;;
69213;SDS011;56325;47.030;18.518;2022-12-13T03:36:24;2.87;;;2.67;;
69213;SDS011;56325;47.030;18.518;2022-12-13T03:38:59;3.23;;;2.63;;
69213;SDS011;56325;47.030;18.518;2022-12-13T03:41:33;3.27;;;3.07;;
69213;SDS011;56325;47.030;18.518;2022-12-13T03:44:08;3.73;;;3.53;;
69213;SDS011;56325;47.030;18.518;2022-12-13T03:46:42;5.47;;;3.30;;
69213;SDS011;56325;47.030;18.518;2022-12-13T03:49:17;11.20;;;5.10;;
69213;SDS011;56325;47.030;18.518;2022-12-13T03:51:53;17.17;;;6.97;;
69213;SDS011;56325;47.030;18.518;2022-12-13T03:54:27;20.37;;;7.57;;
69213;SDS011;56325;47.030;18.518;2022-12-13T03:57:01;19.23;;;7.53;;
69213;SDS011;56325;47.030;18.518;2022-12-13T03:59:35;19.67;;;6.60;;
69213;SDS011;56325;47.030;18.518;2022-12-13T04:02:10;7.13;;;5.77;;
69213;SDS011;56325;47.030;18.518;2022-12-13T04:05:03;5.87;;;5.20;;
69213;SDS011;56325;47.030;18.518;2022-12-13T04:07:39;4.87;;;3.93;;
69213;SDS011;56325;47.030;18.518;2022-12-13T04:10:20;3.80;;;3.60;;
69213;SDS011;56325;47.030;18.518;2022-12-13T04:12:58;3.70;;;3.50;;
69213;SDS011;56325;47.030;18.518;2022-12-13T04:15:50;8.57;;;3.67;;
69213;SDS011;56325;47.030;18.518;2022-12-13T04:18:24;4.50;;;4.10;;
69213;SDS011;56325;47.030;18.518;2022-12-13T04:20:59;4.47;;;3.43;;
69213;SDS011;56325;47.030;18.518;2022-12-13T04:23:35;4.13;;;3.73;;
69213;SDS011;56325;47.030;18.518;2022-12-13T04:26:09;3.10;;;2.90;;
69213;SDS011;56325;47.030;18.518;2022-12-13T04:28:44;3.10;;;2.83;;
69213;SDS011;56325;47.030;18.518;2022-12-13T04:31:26;4.27;;;3.80;;
69213;SDS011;56325;47.030;18.518;2022-12-13T04:34:00;5.77;;;3.57;;
69213;SDS011;56325;47.030;18.518;2022-12-13T04:36:34;5.17;;;4.67;;
69213;SDS011;56325;47.030;18.518;2022-12-13T04:39:10;3.40;;;2.87;;
69213;SDS011;56325;47.030;18.518;2022-12-13T04:41:54;4.87;;;2.23;;
69213;SDS011;56325;47.030;18.518;2022-12-13T04:44:28;3.43;;;3.23;;
69213;SDS011;56325;47.030;18.518;2022-12-13T04:47:08;8.10;;;3.30;;
69213;SDS011;56325;47.030;18.518;2022-12-13T04:49:42;4.67;;;4.37;;
69213;SDS011;56325;47.030;18.518;2022-12-13T04:52:17;4.47;;;4.17;;
69213;SDS011;56325;47.030;18.518;2022-12-13T04:54:55;5.93;;;4.00;;
69213;SDS011;56325;47.030;18.518;2022-12-13T04:57:29;3.20;;;2.90;;
69213;SDS011;56325;47.030;18.518;2022-12-13T05:00:06;5.77;;;3.60;;
69213;SDS011;56325;47.030;18.518;2022-12-13T05:02:44;4.00;;;3.07;;
69213;SDS011;56325;47.030;18.518;2022-12-13T05:05:18;2.73;;;2.60;;
69213;SDS011;56325;47.030;18.518;2022-12-13T05:07:52;2.50;;;2.40;;
69213;SDS011;56325;47.030;18.518;2022-12-13T05:10:29;3.10;;;2.90;;
69213;SDS011;56325;47.030;18.518;2022-12-13T05:13:09;3.50;;;3.20;;
69213;SDS011;56325;47.030;18.518;2022-12-13T05:15:44;5.27;;;4.87;;
69213;SDS011;56325;47.030;18.518;2022-12-13T05:18:26;4.13;;;3.33;;
69213;SDS011;56325;47.030;18.518;2022-12-13T05:21:02;6.40;;;5.80;;
69213;SDS011;56325;47.030;18.518;2022-12-13T05:23:37;6.90;;;5.90;;
69213;SDS011;56325;47.030;18.518;2022-12-13T05:26:14;4.00;;;3.77;;
69213;SDS011;56325;47.030;18.518;2022-12-13T05:28:48;6.70;;;6.03;;
69213;SDS011;56325;47.030;18.518;2022-12-13T05:31:22;57.67;;;37.17;;
69213;SDS011;56325;47.030;18.518;2022-12-13T05:33:57;6.73;;;5.53;;
69213;SDS011;56325;47.030;18.518;2022-12-13T05:36:33;3.87;;;3.57;;
69213;SDS011;56325;47.030;18.518;2022-12-13T05:39:07;5.90;;;4.10;;
69213;SDS011;56325;47.030;18.518;2022-12-13T05:42:02;7.73;;;4.60;;
69213;SDS011;56325;47.030;18.518;2022-12-13T05:44:37;3.50;;;3.30;;
69213;SDS011;56325;47.030;18.518;2022-12-13T05:47:11;4.87;;;3.97;;
69213;SDS011;56325;47.030;18.518;2022-12-13T05:49:45;8.63;;;6.03;;
69213;SDS011;56325;47.030;18.518;2022-12-13T05:52:20;18.53;;;10.70;;
69213;SDS011;56325;47.030;18.518;2022-12-13T05:55:03;23.73;;;12.37;;
69213;SDS011;56325;47.030;18.518;2022-12-13T05:57:39;19.47;;;9.70;;
69213;SDS011;56325;47.030;18.518;2022-12-13T06:00:22;14.93;;;8.33;;
69213;SDS011;56325;47.030;18.518;2022-12-13T06:03:02;9.50;;;6.78;;
69213;SDS011;56325;47.030;18.518;2022-12-13T06:05:37;11.27;;;8.07;;
69213;SDS011;56325;47.030;18.518;2022-12-13T06:08:12;40.37;;;7.67;;
69213;SDS011;56325;47.030;18.518;2022-12-13T06:10:57;16.93;;;9.53;;
69213;SDS011;56325;47.030;18.518;2022-12-13T06:13:48;17.63;;;11.80;;
69213;SDS011;56325;47.030;18.518;2022-12-13T06:16:32;14.07;;;8.93;;
69213;SDS011;56325;47.030;18.518;2022-12-13T06:19:07;18.37;;;8.50;;
69213;SDS011;56325;47.030;18.518;2022-12-13T06:21:41;24.80;;;10.27;;
69213;SDS011;56325;47.030;18.518;2022-12-13T06:24:19;21.97;;;12.57;;
69213;SDS011;56325;47.030;18.518;2022-12-13T06:26:54;18.60;;;9.37;;
69213;SDS011;56325;47.030;18.518;2022-12-13T06:29:30;13.63;;;8.20;;
69213;SDS011;56325;47.030;18.518;2022-12-13T06:32:04;33.10;;;7.87;;
69213;SDS011;56325;47.030;18.518;2022-12-13T06:34:39;19.80;;;8.70;;
69213;SDS011;56325;47.030;18.518;2022-12-13T06:37:13;8.67;;;6.40;;
69213;SDS011;56325;47.030;18.518;2022-12-13T06:39:48;22.93;;;6.13;;
69213;SDS011;56325;47.030;18.518;2022-12-13T06:42:22;8.80;;;6.73;;
69213;SDS011;56325;47.030;18.518;2022-12-13T06:44:58;9.20;;;6.70;;
69213;SDS011;56325;47.030;18.518;2022-12-13T06:47:32;13.37;;;7.40;;
69213;SDS011;56325;47.030;18.518;2022-12-13T06:50:08;36.17;;;8.50;;
69213;SDS011;56325;47.030;18.518;2022-12-13T06:52:44;14.30;;;8.77;;
69213;SDS011;56325;47.030;18.518;2022-12-13T06:55:19;29.87;;;14.97;;
69213;SDS011;56325;47.030;18.518;2022-12-13T06:57:56;12.77;;;6.60;;
69213;SDS011;56325;47.030;18.518;2022-12-13T07:00:32;9.87;;;6.10;;
69213;SDS011;56325;47.030;18.518;2022-12-13T07:03:19;9.20;;;4.93;;
69213;SDS011;56325;47.030;18.518;2022-12-13T07:05:54;5.40;;;4.90;;
69213;SDS011;56325;47.030;18.518;2022-12-13T07:08:29;8.53;;;4.17;;
69213;SDS011;56325;47.030;18.518;2022-12-13T07:11:04;7.20;;;4.70;;
69213;SDS011;56325;47.030;18.518;2022-12-13T07:13:38;6.33;;;5.70;;
69213;SDS011;56325;47.030;18.518;2022-12-13T07:16:14;7.17;;;5.20;;
69213;SDS011;56325;47.030;18.518;2022-12-13T07:18:52;6.60;;;5.57;;
69213;SDS011;56325;47.030;18.518;2022-12-13T07:21:33;5.40;;;4.97;;
69213;SDS011;56325;47.030;18.518;2022-12-13T07:24:07;7.90;;;6.23;;
69213;SDS011;56325;47.030;18.518;2022-12-13T07:26:42;6.20;;;5.60;;
69213;SDS011;56325;47.030;18.518;2022-12-13T07:29:17;8.53;;;6.13;;
69213;SDS011;56325;47.030;18.518;2022-12-13T07:31:56;23.80;;;11.07;;
69213;SDS011;56325;47.030;18.518;2022-12-13T07:34:34;19.53;;;11.07;;
69213;SDS011;56325;47.030;18.518;2022-12-13T07:37:08;30.50;;;12.67;;
69213;SDS011;56325;47.030;18.518;2022-12-13T07:40:03;11.50;;;8.70;;
69213;SDS011;56325;47.030;18.518;2022-12-13T07:42:40;5.23;;;4.73;;
69213;SDS011;56325;47.030;18.518;2022-12-13T07:45:14;5.77;;;4.83;;
69213;SDS011;56325;47.030;18.518;2022-12-13T07:47:50;5.33;;;4.67;;
69213;SDS011;56325;47.030;18.518;2022-12-13T07:50:26;3.93;;;3.63;;
69213;SDS011;56325;47.030;18.518;2022-12-13T07:53:09;4.10;;;3.43;;
69213;SDS011;56325;47.030;18.518;2022-12-13T07:55:43;3.43;;;3.13;;
69213;SDS011;56325;47.030;18.518;2022-12-13T07:58:18;4.00;;;3.80;;
69213;SDS011;56325;47.030;18.518;2022-12-13T08:00:52;6.77;;;4.60;;
69213;SDS011;56325;47.030;18.518;2022-12-13T08:03:33;4.57;;;3.70;;
69213;SDS011;56325;47.030;18.518;2022-12-13T08:06:09;10.03;;;5.37;;
69213;SDS011;56325;47.030;18.518;2022-12-13T08:08:46;7.77;;;6.50;;
69213;SDS011;56325;47.030;18.518;2022-12-13T08:11:22;5.23;;;4.73;;
69213;SDS011;56325;47.030;18.518;2022-12-13T08:13:58;3.80;;;3.50;;
69213;SDS011;56325;47.030;18.518;2022-12-13T08:16:33;3.50;;;3.30;;
69213;SDS011;56325;47.030;18.518;2022-12-13T08:19:09;4.17;;;3.87;;
69213;SDS011;56325;47.030;18.518;2022-12-13T08:21:43;3.57;;;3.37;;
69213;SDS011;56325;47.030;18.518;2022-12-13T08:24:29;3.63;;;3.43;;
69213;SDS011;56325;47.030;18.518;2022-12-13T08:27:04;3.70;;;3.43;;
69213;SDS011;56325;47.030;18.518;2022-12-13T08:29:38;20.07;;;3.93;;
69213;SDS011;56325;47.030;18.518;2022-12-13T08:32:12;4.97;;;4.43;;
69213;SDS011;56325;47.030;18.518;2022-12-13T08:34:48;4.27;;;3.87;;
69213;SDS011;56325;47.030;18.518;2022-12-13T08:37:22;3.60;;;3.30;;
69213;SDS011;56325;47.030;18.518;2022-12-13T08:39:58;6.63;;;4.70;;
69213;SDS011;56325;47.030;18.518;2022-12-13T08:42:32;3.53;;;3.33;;
69213;SDS011;56325;47.030;18.518;2022-12-13T08:45:07;5.90;;;5.20;;
69213;SDS011;56325;47.030;18.518;2022-12-13T08:47:42;10.27;;;7.43;;
69213;SDS011;56325;47.030;18.518;2022-12-13T08:50:19;14.73;;;8.07;;
69213;SDS011;56325;47.030;18.518;2022-12-13T08:52:53;31.93;;;13.73;;
69213;SDS011;56325;47.030;18.518;2022-12-13T08:55:28;10.93;;;7.20;;
69213;SDS011;56325;47.030;18.518;2022-12-13T08:58:04;20.63;;;9.37;;
69213;SDS011;56325;47.030;18.518;2022-12-13T09:00:42;52.40;;;20.93;;
69213;SDS011;56325;47.030;18.518;2022-12-13T09:03:17;29.00;;;14.07;;
69213;SDS011;56325;47.030;18.518;2022-12-13T09:05:54;9.33;;;6.70;;
69213;SDS011;56325;47.030;18.518;2022-12-13T09:08:28;3.53;;;3.23;;
69213;SDS011;56325;47.030;18.518;2022-12-13T09:11:07;7.33;;;4.53;;
69213;SDS011;56325;47.030;18.518;2022-12-13T09:13:56;3.00;;;2.80;;
69213;SDS011;56325;47.030;18.518;2022-12-13T09:16:33;5.00;;;4.60;;
69213;SDS011;56325;47.030;18.518;2022-12-13T09:19:08;3.90;;;3.40;;
69213;SDS011;56325;47.030;18.518;2022-12-13T09:21:59;5.53;;;3.90;;
69213;SDS011;56325;47.030;18.518;2022-12-13T09:24:34;5.77;;;4.53;;
69213;SDS011;56325;47.030;18.518;2022-12-13T09:27:09;3.83;;;3.53;;
69213;SDS011;56325;47.030;18.518;2022-12-13T09:29:59;3.60;;;3.40;;
69213;SDS011;56325;47.030;18.518;2022-12-13T09:32:34;3.87;;;3.57;;
69213;SDS011;56325;47.030;18.518;2022-12-13T09:35:08;3.87;;;3.57;;
69213;SDS011;56325;47.030;18.518;2022-12-13T09:37:44;3.50;;;3.20;;
69213;SDS011;56325;47.030;18.518;2022-12-13T09:40:20;3.70;;;3.47;;
69213;SDS011;56325;47.030;18.518;2022-12-13T09:42:58;3.13;;;2.30;;
69213;SDS011;56325;47.030;18.518;2022-12-13T09:45:53;3.77;;;2.43;;
69213;SDS011;56325;47.030;18.518;2022-12-13T09:48:33;2.65;;;2.40;;
69213;SDS011;56325;47.030;18.518;2022-12-13T09:51:09;3.00;;;2.80;;
69213;SDS011;56325;47.030;18.518;2022-12-13T09:53:59;2.70;;;2.50;;
69213;SDS011;56325;47.030;18.518;2022-12-13T09:56:34;2.97;;;2.73;;
69213;SDS011;56325;47.030;18.518;2022-12-13T09:59:10;3.93;;;2.67;;
69213;SDS011;56325;47.030;18.518;2022-12-13T10:01:45;3.40;;;2.80;;
69213;SDS011;56325;47.030;18.518;2022-12-13T10:04:20;3.67;;;3.37;;
69213;SDS011;56325;47.030;18.518;2022-12-13T10:06:54;3.23;;;2.87;;
69213;SDS011;56325;47.030;18.518;2022-12-13T10:09:33;2.97;;;2.77;;
69213;SDS011;56325;47.030;18.518;2022-12-13T10:12:09;3.60;;;2.90;;
69213;SDS011;56325;47.030;18.518;2022-12-13T10:14:50;3.05;;;2.85;;
69213;SDS011;56325;47.030;18.518;2022-12-13T10:17:30;3.20;;;3.03;;
69213;SDS011;56325;47.030;18.518;2022-12-13T10:20:11;3.25;;;3.05;;
69213;SDS011;56325;47.030;18.518;2022-12-13T10:22:50;2.87;;;2.75;;
69213;SDS011;56325;47.030;18.518;2022-12-13T10:25:47;3.47;;;2.63;;
69213;SDS011;56325;47.030;18.518;2022-12-13T10:28:34;2.78;;;2.62;;
69213;SDS011;56325;47.030;18.518;2022-12-13T10:31:14;2.53;;;2.33;;
69213;SDS011;56325;47.030;18.518;2022-12-13T10:33:51;3.37;;;3.17;;
69213;SDS011;56325;47.030;18.518;2022-12-13T10:36:29;3.63;;;3.33;;
69213;SDS011;56325;47.030;18.518;2022-12-13T10:39:04;4.47;;;3.50;;
69213;SDS011;56325;47.030;18.518;2022-12-13T10:41:41;3.23;;;3.03;;
69213;SDS011;56325;47.030;18.518;2022-12-13T10:44:17;3.77;;;3.50;;
69213;SDS011;56325;47.030;18.518;2022-12-13T10:47:02;3.97;;;2.80;;
69213;SDS011;56325;47.030;18.518;2022-12-13T10:49:50;3.37;;;3.17;;
69213;SDS011;56325;47.030;18.518;2022-12-13T10:52:32;4.67;;;3.53;;
69213;SDS011;56325;47.030;18.518;2022-12-13T10:55:21;5.57;;;4.20;;
69213;SDS011;56325;47.030;18.518;2022-12-13T10:58:01;3.03;;;2.83;;
69213;SDS011;56325;47.030;18.518;2022-12-13T11:00:39;2.73;;;2.57;;
69213;SDS011;56325;47.030;18.518;2022-12-13T11:03:27;4.30;;;2.77;;
69213;SDS011;56325;47.030;18.518;2022-12-13T11:06:04;3.33;;;3.13;;
69213;SDS011;56325;47.030;18.518;2022-12-13T11:08:40;4.23;;;3.87;;
69213;SDS011;56325;47.030;18.518;2022-12-13T11:11:15;3.30;;;3.10;;
69213;SDS011;56325;47.030;18.518;2022-12-13T11:13:53;3.10;;;2.90;;
69213;SDS011;56325;47.030;18.518;2022-12-13T11:16:33;4.00;;;3.70;;
69213;SDS011;56325;47.030;18.518;2022-12-13T11:19:14;25.47;;;8.67;;
69213;SDS011;56325;47.030;18.518;2022-12-13T11:21:56;4.50;;;3.30;;
69213;SDS011;56325;47.030;18.518;2022-12-13T11:24:34;8.67;;;5.73;;
69213;SDS011;56325;47.030;18.518;2022-12-13T11:27:18;3.40;;;3.20;;
69213;SDS011;56325;47.030;18.518;2022-12-13T11:30:09;7.07;;;4.70;;
69213;SDS011;56325;47.030;18.518;2022-12-13T11:33:06;12.60;;;4.77;;
69213;SDS011;56325;47.030;18.518;2022-12-13T11:35:51;10.53;;;5.30;;
69213;SDS011;56325;47.030;18.518;2022-12-13T11:38:34;4.50;;;4.10;;
69213;SDS011;56325;47.030;18.518;2022-12-13T11:41:30;9.60;;;3.13;;
69213;SDS011;56325;47.030;18.518;2022-12-13T11:44:09;3.97;;;3.57;;
69213;SDS011;56325;47.030;18.518;2022-12-13T11:46:49;3.77;;;3.47;;
69213;SDS011;56325;47.030;18.518;2022-12-13T11:49:31;3.77;;;3.57;;
69213;SDS011;56325;47.030;18.518;2022-12-13T11:52:12;3.23;;;3.03;;
69213;SDS011;56325;47.030;18.518;2022-12-13T11:54:52;3.00;;;2.80;;
69213;SDS011;56325;47.030;18.518;2022-12-13T11:57:34;3.37;;;3.17;;
69213;SDS011;56325;47.030;18.518;2022-12-13T12:00:21;4.10;;;3.80;;
69213;SDS011;56325;47.030;18.518;2022-12-13T12:03:13;7.10;;;5.20;;
69213;SDS011;56325;47.030;18.518;2022-12-13T12:05:52;3.43;;;3.23;;
69213;SDS011;56325;47.030;18.518;2022-12-13T12:08:32;3.30;;;3.10;;
69213;SDS011;56325;47.030;18.518;2022-12-13T12:11:11;4.95;;;4.45;;
69213;SDS011;56325;47.030;18.518;2022-12-13T12:13:53;3.53;;;3.33;;
69213;SDS011;56325;47.030;18.518;2022-12-13T12:16:32;4.17;;;3.30;;
69213;SDS011;56325;47.030;18.518;2022-12-13T12:19:13;2.50;;;2.37;;
69213;SDS011;56325;47.030;18.518;2022-12-13T12:21:57;6.43;;;2.77;;
69213;SDS011;56325;47.030;18.518;2022-12-13T12:24:51;2.90;;;2.70;;
69213;SDS011;56325;47.030;18.518;2022-12-13T12:27:34;8.87;;;3.20;;
69213;SDS011;56325;47.030;18.518;2022-12-13T12:30:16;6.77;;;3.07;;
69213;SDS011;56325;47.030;18.518;2022-12-13T12:32:59;3.67;;;3.37;;
69213;SDS011;56325;47.030;18.518;2022-12-13T12:35:48;4.03;;;3.60;;
69213;SDS011;56325;47.030;18.518;2022-12-13T12:44:27;5.17;;;4.23;;
69213;SDS011;56325;47.030;18.518;2022-12-13T12:47:15;4.90;;;4.57;;
69213;SDS011;56325;47.030;18.518;2022-12-13T12:50:21;4.43;;;3.60;;
69213;SDS011;56325;47.030;18.518;2022-12-13T12:53:09;4.23;;;3.93;;
69213;SDS011;56325;47.030;18.518;2022-12-13T12:55:55;3.67;;;3.47;;
69213;SDS011;56325;47.030;18.518;2022-12-13T12:58:39;6.80;;;4.53;;
69213;SDS011;56325;47.030;18.518;2022-12-13T13:01:24;27.60;;;11.07;;
69213;SDS011;56325;47.030;18.518;2022-12-13T13:04:16;24.23;;;11.60;;
69213;SDS011;56325;47.030;18.518;2022-12-13T13:06:55;5.67;;;5.10;;
69213;SDS011;56325;47.030;18.518;2022-12-13T13:09:35;5.63;;;5.13;;
69213;SDS011;56325;47.030;18.518;2022-12-13T13:12:11;6.03;;;5.43;;
69213;SDS011;56325;47.030;18.518;2022-12-13T13:21:25;8.70;;;6.00;;
69213;SDS011;56325;47.030;18.518;2022-12-13T13:24:16;4.73;;;4.40;;
69213;SDS011;56325;47.030;18.518;2022-12-13T13:26:57;15.13;;;8.05;;
69213;SDS011;56325;47.030;18.518;2022-12-13T13:29:33;10.57;;;7.27;;
69213;SDS011;56325;47.030;18.518;2022-12-13T13:32:25;6.17;;;5.47;;
69213;SDS011;56325;47.030;18.518;2022-12-13T13:47:57;9.17;;;4.77;;
69213;SDS011;56325;47.030;18.518;2022-12-13T13:51:09;7.68;;;5.78;;
69213;SDS011;56325;47.030;18.518;2022-12-13T13:54:24;3.80;;;3.60;;
69213;SDS011;56325;47.030;18.518;2022-12-13T13:57:36;9.50;;;4.93;;
69213;SDS011;56325;47.030;18.518;2022-12-13T14:00:52;6.63;;;5.53;;
69213;SDS011;56325;47.030;18.518;2022-12-13T14:07:23;24.97;;;16.30;;
69213;SDS011;56325;47.030;18.518;2022-12-13T14:10:25;8.77;;;4.33;;
69213;SDS011;56325;47.030;18.518;2022-12-13T14:13:26;5.95;;;4.50;;
69213;SDS011;56325;47.030;18.518;2022-12-13T14:16:47;5.00;;;4.60;;
69213;SDS011;56325;47.030;18.518;2022-12-13T14:22:54;5.10;;;4.63;;
69213;SDS011;56325;47.030;18.518;2022-12-13T14:25:41;5.30;;;4.90;;
69213;SDS011;56325;47.030;18.518;2022-12-13T14:28:36;17.07;;;9.13;;
69213;SDS011;56325;47.030;18.518;2022-12-13T14:31:20;8.57;;;6.77;;
69213;SDS011;56325;47.030;18.518;2022-12-13T14:33:57;9.27;;;7.27;;
69213;SDS011;56325;47.030;18.518;2022-12-13T14:36:34;12.40;;;8.23;;
69213;SDS011;56325;47.030;18.518;2022-12-13T14:39:14;10.07;;;8.07;;
69213;SDS011;56325;47.030;18.518;2022-12-13T14:41:57;50.20;;;19.93;;
69213;SDS011;56325;47.030;18.518;2022-12-13T14:44:33;31.90;;;14.77;;
69213;SDS011;56325;47.030;18.518;2022-12-13T14:47:07;58.93;;;28.37;;
69213;SDS011;56325;47.030;18.518;2022-12-13T14:49:50;27.13;;;12.83;;
69213;SDS011;56325;47.030;18.518;2022-12-13T14:52:28;19.87;;;12.07;;
69213;SDS011;56325;47.030;18.518;2022-12-13T14:55:21;12.73;;;9.30;;
69213;SDS011;56325;47.030;18.518;2022-12-13T14:57:59;13.48;;;9.95;;
69213;SDS011;56325;47.030;18.518;2022-12-13T15:00:38;20.70;;;10.80;;
69213;SDS011;56325;47.030;18.518;2022-12-13T15:03:19;20.97;;;12.27;;
69213;SDS011;56325;47.030;18.518;2022-12-13T15:05:57;18.53;;;11.27;;
69213;SDS011;56325;47.030;18.518;2022-12-13T15:08:34;23.17;;;12.27;;
69213;SDS011;56325;47.030;18.518;2022-12-13T15:11:13;26.83;;;14.57;;
69213;SDS011;56325;47.030;18.518;2022-12-13T15:13:47;33.17;;;17.73;;
69213;SDS011;56325;47.030;18.518;2022-12-13T15:16:25;23.70;;;14.27;;
69213;SDS011;56325;47.030;18.518;2022-12-13T15:19:12;29.17;;;13.23;;
69213;SDS011;56325;47.030;18.518;2022-12-13T15:22:16;18.20;;;10.63;;
69213;SDS011;56325;47.030;18.518;2022-12-13T15:24:52;15.50;;;7.97;;
69213;SDS011;56325;47.030;18.518;2022-12-13T15:27:30;12.27;;;6.57;;
69213;SDS011;56325;47.030;18.518;2022-12-13T15:30:06;17.00;;;10.40;;
69213;SDS011;56325;47.030;18.518;2022-12-13T15:35:36;18.67;;;11.02;;
69213;SDS011;56325;47.030;18.518;2022-12-13T15:38:12;26.33;;;12.03;;
69213;SDS011;56325;47.030;18.518;2022-12-13T15:41:01;21.23;;;12.80;;
69213;SDS011;56325;47.030;18.518;2022-12-13T15:43:41;26.77;;;13.03;;
69213;SDS011;56325;47.030;18.518;2022-12-13T15:46:22;28.07;;;15.83;;
69213;SDS011;56325;47.030;18.518;2022-12-13T15:48:58;58.60;;;20.23;;
69213;SDS011;56325;47.030;18.518;2022-12-13T15:51:37;56.67;;;23.13;;
69213;SDS011;56325;47.030;18.518;2022-12-13T15:54:26;67.63;;;29.07;;
69213;SDS011;56325;47.030;18.518;2022-12-13T15:57:02;83.47;;;34.00;;
69213;SDS011;56325;47.030;18.518;2022-12-13T15:59:59;71.90;;;31.10;;
69213;SDS011;56325;47.030;18.518;2022-12-13T16:02:48;80.57;;;33.60;;
69213;SDS011;56325;47.030;18.518;2022-12-13T16:05:46;41.90;;;22.13;;
69213;SDS011;56325;47.030;18.518;2022-12-13T16:08:25;38.80;;;17.10;;
69213;SDS011;56325;47.030;18.518;2022-12-13T16:11:02;30.98;;;15.10;;
69213;SDS011;56325;47.030;18.518;2022-12-13T16:13:37;21.13;;;12.53;;
69213;SDS011;56325;47.030;18.518;2022-12-13T16:16:21;17.83;;;9.93;;
69213;SDS011;56325;47.030;18.518;2022-12-13T16:19:00;11.60;;;8.43;;